createdAt,value
2023-04-02T00:01:44.007Z,95512.72
2023-04-02T00:04:22.434Z,95510.28
2023-04-02T00:07:10.365Z,95512.03
2023-04-02T00:09:37.158Z,95507.56
2023-04-02T00:12:15.566Z,95510.78
2023-04-02T00:14:45.356Z,95517.38
2023-04-02T00:17:11.851Z,95518.97
2023-04-02T00:20:10.739Z,95520.44
2023-04-02T00:22:37.374Z,95511.91
2023-04-02T00:25:07.902Z,95516.25
2023-04-02T00:27:34.529Z,95521.41
2023-04-02T00:30:01.058Z,95519.66
2023-04-02T00:32:28.491Z,95520.44
2023-04-02T00:34:55.064Z,95520.94
2023-04-02T00:37:27.641Z,95524.97
2023-04-02T00:40:07.304Z,95524.78
2023-04-02T00:42:34.709Z,95529.78
2023-04-02T00:45:01.441Z,95528.69
2023-04-02T00:47:32.071Z,95531.25
2023-04-02T00:50:21.833Z,95532.38
2023-04-02T00:52:49.172Z,95537.53
2023-04-02T00:55:51.164Z,95542.06
2023-04-02T00:58:26.212Z,95539.81
2023-04-02T01:00:52.700Z,95541.59
2023-04-02T01:03:19.536Z,95539.13
2023-04-02T01:05:56.423Z,95544.16
2023-04-02T01:08:25.920Z,95544.31
2023-04-02T01:11:01.918Z,95540.91
2023-04-02T01:13:31.209Z,95542.53
2023-04-02T01:16:00.883Z,95552.72
2023-04-02T01:18:36.839Z,95544.97
2023-04-02T01:21:07.111Z,95548.19
2023-04-02T01:23:35.744Z,95539.47
2023-04-02T01:26:05.602Z,95545.94
2023-04-02T01:28:33.770Z,95545.13
2023-04-02T01:31:00.834Z,95537.53
2023-04-02T01:33:31.142Z,95542.22
2023-04-02T01:36:00.263Z,95545.91
2023-04-02T01:38:27.548Z,95543.31
2023-04-02T01:41:03.236Z,95547.19
2023-04-02T01:43:29.665Z,95540.59
2023-04-02T01:45:57.570Z,95544.28
2023-04-02T01:48:24.885Z,95535.59
2023-04-02T01:50:52.708Z,95544.13
2023-04-02T01:53:19.284Z,95549.28
2023-04-02T01:55:47.420Z,95551.06
2023-04-02T01:58:14.262Z,95549.44
2023-04-02T02:00:45.702Z,95551.19
2023-04-02T02:03:12.502Z,95549.44
2023-04-02T02:05:39.080Z,95553.94
2023-04-02T02:08:06.006Z,95560.88
2023-04-02T02:10:36.224Z,95565.22
2023-04-02T02:13:02.874Z,95561.34
2023-04-02T02:15:31.847Z,95562.66
2023-04-02T02:17:58.981Z,95561.34
2023-04-02T02:20:26.035Z,95562.75
2023-04-02T02:22:52.547Z,95568.38
2023-04-02T02:25:21.040Z,95573.88
2023-04-02T02:27:49.987Z,95572.09
2023-04-02T02:30:25.713Z,95577.38
2023-04-02T02:33:10.691Z,95580.94
2023-04-02T02:35:39.282Z,95579.03
2023-04-02T02:38:20.154Z,95576.28
2023-04-02T02:40:46.753Z,95576.75
2023-04-02T02:43:13.428Z,95580.97
2023-04-02T02:45:39.913Z,95579.34
2023-04-02T02:48:07.008Z,95589.66
2023-04-02T02:50:33.491Z,95590.63
2023-04-02T02:53:00.427Z,95586.44
2023-04-02T02:55:37.406Z,95589.16
2023-04-02T02:58:09.710Z,95589.81
2023-04-02T03:00:36.236Z,95594.16
2023-04-02T03:03:04.786Z,95590.78
2023-04-02T03:05:31.414Z,95589.97
2023-04-02T03:07:57.876Z,95593.38
2023-04-02T03:10:28.529Z,95590.63
2023-04-02T03:12:56.930Z,95590.63
2023-04-02T03:15:27.499Z,95589.53
2023-04-02T03:17:54.014Z,95583.22
2023-04-02T03:20:22.321Z,95589.88
2023-04-02T03:22:56.268Z,95593.09
2023-04-02T03:25:24.912Z,95592.13
2023-04-02T03:27:52.163Z,95599.69
2023-04-02T03:30:21.689Z,95601.47
2023-04-02T03:32:48.274Z,95600.00
2023-04-02T03:35:33.493Z,95597.72
2023-04-02T03:38:20.553Z,95603.22
2023-04-02T03:40:57.572Z,95619.66
2023-04-02T03:43:25.235Z,95605.00
2023-04-02T03:45:52.969Z,95605.97
2023-04-02T03:48:25.890Z,95614.00
2023-04-02T03:50:56.923Z,95610.44
2023-04-02T03:53:24.280Z,95612.84
2023-04-02T03:55:50.832Z,95618.00
2023-04-02T03:58:19.187Z,95617.41
2023-04-02T04:00:53.432Z,95611.59
2023-04-02T04:03:30.774Z,95622.72
2023-04-02T04:06:01.137Z,95628.03
2023-04-02T04:08:30.631Z,95625.28
2023-04-02T04:10:57.641Z,95621.75
2023-04-02T04:13:44.963Z,95633.69
2023-04-02T04:16:19.301Z,95635.31
2023-04-02T04:18:57.230Z,95636.91
2023-04-02T04:21:38.891Z,95640.94
2023-04-02T04:24:15.913Z,95646.91
2023-04-02T04:26:55.502Z,95655.31
2023-04-02T04:29:40.820Z,95647.41
2023-04-02T04:32:18.955Z,95661.91
2023-04-02T04:34:53.789Z,95654.06
2023-04-02T04:37:21.881Z,95656.31
2023-04-02T04:39:50.052Z,95658.72
2023-04-02T04:42:35.435Z,95656.81
2023-04-02T04:45:24.318Z,95659.88
2023-04-02T04:48:04.636Z,95669.09
2023-04-02T04:50:39.881Z,95665.38
2023-04-02T04:53:06.734Z,95669.44
2023-04-02T04:55:39.995Z,95670.25
2023-04-02T04:58:25.363Z,95681.84
2023-04-02T05:01:07.313Z,95675.41
2023-04-02T05:03:49.125Z,95675.91
2023-04-02T05:06:24.832Z,95680.75
2023-04-02T05:08:51.978Z,95690.78
2023-04-02T05:11:31.936Z,95686.41
2023-04-02T05:13:59.288Z,95688.19
2023-04-02T05:16:30.139Z,95700.94
2023-04-02T05:18:57.769Z,95697.22
2023-04-02T05:21:42.791Z,95699.50
2023-04-02T05:24:28.036Z,95700.00
2023-04-02T05:26:54.591Z,95700.66
2023-04-02T05:29:22.537Z,95696.13
2023-04-02T05:31:59.663Z,95700.03
2023-04-02T05:34:27.485Z,95705.69
2023-04-02T05:36:54.330Z,95700.34
2023-04-02T05:39:21.770Z,95708.75
2023-04-02T05:41:48.296Z,95710.22
2023-04-02T05:44:14.738Z,95709.09
2023-04-02T05:46:46.334Z,95711.50
2023-04-02T05:49:16.969Z,95709.88
2023-04-02T05:51:43.762Z,95712.31
2023-04-02T05:54:17.733Z,95717.47
2023-04-02T05:56:44.457Z,95717.34
2023-04-02T05:59:12.160Z,95719.59
2023-04-02T06:01:45.687Z,95722.66
2023-04-02T06:04:18.385Z,95731.69
2023-04-02T06:07:05.215Z,95733.34
2023-04-02T06:09:37.875Z,95732.19
2023-04-02T06:12:04.361Z,95736.22
2023-04-02T06:14:31.174Z,95741.25
2023-04-02T06:16:58.138Z,95747.53
2023-04-02T06:19:27.701Z,95744.31
2023-04-02T06:21:58.439Z,95756.56
2023-04-02T06:24:24.974Z,95764.81
2023-04-02T06:26:56.819Z,95764.97
2023-04-02T06:29:25.588Z,95776.91
2023-04-02T06:31:58.781Z,95780.47
2023-04-02T06:34:26.091Z,95813.94
2023-04-02T06:36:55.287Z,95812.66
2023-04-02T06:39:23.118Z,95820.47
2023-04-02T06:41:58.816Z,95831.84
